sensor_id;sensor_type;location;lat;lon;timestamp;pressure;altitude;pressure_sealevel;temperature;humidity
9523;BME280;63165;43.016;25.784;2023-05-01T00:02:27;99985.03;;;12.91;81.31
9523;BME280;63165;43.016;25.784;2023-05-01T00:04:56;99971.34;;;12.80;81.37
9523;BME280;63165;43.016;25.784;2023-05-01T00:07:24;99969.97;;;12.67;81.51
9523;BME280;63165;43.016;25.784;2023-05-01T00:09:53;99962.44;;;12.53;81.84
9523;BME280;63165;43.016;25.784;2023-05-01T00:12:21;99918.22;;;12.04;82.08
9523;BME280;63165;43.016;25.784;2023-05-01T00:14:48;99985.97;;;12.56;82.51
9523;BME280;63165;43.016;25.784;2023-05-01T00:17:16;99983.53;;;12.50;82.44
9523;BME280;63165;43.016;25.784;2023-05-01T00:19:43;99987.88;;;12.49;82.60
9523;BME280;63165;43.016;25.784;2023-05-01T00:22:12;99987.25;;;12.39;82.05
9523;BME280;63165;43.016;25.784;2023-05-01T00:24:39;99999.34;;;12.47;81.94
9523;BME280;63165;43.016;25.784;2023-05-01T00:27:07;99989.03;;;12.39;81.79
9523;BME280;63165;43.016;25.784;2023-05-01T00:29:34;99996.97;;;12.36;82.06
9523;BME280;63165;43.016;25.784;2023-05-01T00:32:04;99980.59;;;12.26;81.66
9523;BME280;63165;43.016;25.784;2023-05-01T00:34:32;99983.41;;;12.18;81.69
9523;BME280;63165;43.016;25.784;2023-05-01T00:36:59;100000.72;;;12.27;81.76
9523;BME280;63165;43.016;25.784;2023-05-01T00:39:28;100000.84;;;12.21;81.80
9523;BME280;63165;43.016;25.784;2023-05-01T00:41:56;99999.88;;;12.25;81.56
9523;BME280;63165;43.016;25.784;2023-05-01T00:44:23;100006.97;;;12.21;81.30
9523;BME280;63165;43.016;25.784;2023-05-01T00:46:50;99981.19;;;12.01;81.10
9523;BME280;63165;43.016;25.784;2023-05-01T00:49:19;100008.09;;;12.10;81.37
9523;BME280;63165;43.016;25.784;2023-05-01T00:51:48;99980.56;;;11.92;81.25
9523;BME280;63165;43.016;25.784;2023-05-01T00:54:17;99999.75;;;11.94;81.44
9523;BME280;63165;43.016;25.784;2023-05-01T00:56:50;100000.72;;;11.88;81.47
9523;BME280;63165;43.016;25.784;2023-05-01T00:59:18;99977.63;;;11.65;81.17
9523;BME280;63165;43.016;25.784;2023-05-01T01:01:45;100016.66;;;11.77;81.55
9523;BME280;63165;43.016;25.784;2023-05-01T01:04:12;100009.84;;;11.70;81.18
9523;BME280;63165;43.016;25.784;2023-05-01T01:06:48;100016.03;;;11.66;81.30
9523;BME280;63165;43.016;25.784;2023-05-01T01:09:26;100013.66;;;11.55;80.83
9523;BME280;63165;43.016;25.784;2023-05-01T01:12:08;100018.47;;;11.33;81.26
9523;BME280;63165;43.016;25.784;2023-05-01T01:14:41;100016.81;;;11.29;81.08
9523;BME280;63165;43.016;25.784;2023-05-01T01:17:19;100028.19;;;11.28;81.52
9523;BME280;63165;43.016;25.784;2023-05-01T01:20:09;100018.72;;;11.21;81.75
9523;BME280;63165;43.016;25.784;2023-05-01T01:22:45;100029.34;;;11.13;81.71
9523;BME280;63165;43.016;25.784;2023-05-01T01:25:53;100028.63;;;11.05;82.21
9523;BME280;63165;43.016;25.784;2023-05-01T01:31:33;100030.53;;;10.97;81.89
9523;BME280;63165;43.016;25.784;2023-05-01T01:34:12;100049.13;;;10.83;81.67
9523;BME280;63165;43.016;25.784;2023-05-01T01:36:47;100040.34;;;10.84;81.78
9523;BME280;63165;43.016;25.784;2023-05-01T01:39:24;100012.63;;;10.74;82.03
9523;BME280;63165;43.016;25.784;2023-05-01T01:41:54;100038.59;;;10.84;82.11
9523;BME280;63165;43.016;25.784;2023-05-01T01:44:29;100001.69;;;10.50;82.17
9523;BME280;63165;43.016;25.784;2023-05-01T01:47:01;100045.63;;;10.82;82.46
9523;BME280;63165;43.016;25.784;2023-05-01T01:49:36;100037.91;;;10.75;81.83
9523;BME280;63165;43.016;25.784;2023-05-01T01:52:05;100045.88;;;10.68;81.37
9523;BME280;63165;43.016;25.784;2023-05-01T01:54:37;100038.91;;;10.67;81.79
9523;BME280;63165;43.016;25.784;2023-05-01T01:57:06;99995.91;;;10.33;81.55
9523;BME280;63165;43.016;25.784;2023-05-01T01:59:35;100043.50;;;10.53;82.19
9523;BME280;63165;43.016;25.784;2023-05-01T02:02:04;100002.06;;;10.27;82.20
9523;BME280;63165;43.016;25.784;2023-05-01T02:04:34;100040.81;;;10.58;81.94
9523;BME280;63165;43.016;25.784;2023-05-01T02:07:03;100053.03;;;10.57;82.18
9523;BME280;63165;43.016;25.784;2023-05-01T02:09:33;100011.53;;;10.34;82.00
9523;BME280;63165;43.016;25.784;2023-05-01T02:12:02;100061.84;;;10.53;81.77
9523;BME280;63165;43.016;25.784;2023-05-01T02:14:32;100042.97;;;10.33;82.24
9523;BME280;63165;43.016;25.784;2023-05-01T02:17:00;100069.84;;;10.42;82.30
9523;BME280;63165;43.016;25.784;2023-05-01T02:19:29;100060.44;;;10.27;82.65
9523;BME280;63165;43.016;25.784;2023-05-01T02:22:00;100051.78;;;10.24;82.79
9523;BME280;63165;43.016;25.784;2023-05-01T02:24:29;100059.75;;;10.16;83.03
9523;BME280;63165;43.016;25.784;2023-05-01T02:27:02;100080.72;;;10.11;83.52
9523;BME280;63165;43.016;25.784;2023-05-01T02:29:31;100076.44;;;10.06;83.75
9523;BME280;63165;43.016;25.784;2023-05-01T02:31:59;100078.28;;;10.01;84.02
9523;BME280;63165;43.016;25.784;2023-05-01T02:34:26;100096.59;;;9.98;84.08
9523;BME280;63165;43.016;25.784;2023-05-01T02:36:53;100067.13;;;9.86;84.35
9523;BME280;63165;43.016;25.784;2023-05-01T02:39:22;100069.00;;;9.78;84.65
9523;BME280;63165;43.016;25.784;2023-05-01T02:41:50;100047.31;;;9.70;84.82
9523;BME280;63165;43.016;25.784;2023-05-01T02:44:19;100050.94;;;9.60;85.30
9523;BME280;63165;43.016;25.784;2023-05-01T02:46:48;100034.50;;;9.50;85.71
9523;BME280;63165;43.016;25.784;2023-05-01T02:49:17;100033.75;;;9.40;85.61
9523;BME280;63165;43.016;25.784;2023-05-01T02:51:45;100084.69;;;9.77;86.19
9523;BME280;63165;43.016;25.784;2023-05-01T02:54:13;100088.25;;;9.71;87.08
9523;BME280;63165;43.016;25.784;2023-05-01T02:56:43;100095.06;;;9.81;86.97
9523;BME280;63165;43.016;25.784;2023-05-01T02:59:10;100070.13;;;9.56;86.64
9523;BME280;63165;43.016;25.784;2023-05-01T03:01:38;100093.47;;;9.71;86.60
9523;BME280;63165;43.016;25.784;2023-05-01T03:04:05;100096.84;;;9.78;86.32
9523;BME280;63165;43.016;25.784;2023-05-01T03:06:33;100107.38;;;9.75;86.63
9523;BME280;63165;43.016;25.784;2023-05-01T03:09:00;100116.06;;;9.72;86.42
9523;BME280;63165;43.016;25.784;2023-05-01T03:11:27;100112.44;;;9.85;86.50
9523;BME280;63165;43.016;25.784;2023-05-01T03:13:56;100098.53;;;9.82;85.73
9523;BME280;63165;43.016;25.784;2023-05-01T03:16:23;100117.53;;;9.95;85.47
9523;BME280;63165;43.016;25.784;2023-05-01T03:18:51;100100.09;;;9.97;85.49
9523;BME280;63165;43.016;25.784;2023-05-01T03:21:18;100103.59;;;9.96;85.24
9523;BME280;63165;43.016;25.784;2023-05-01T03:23:46;100120.28;;;9.85;85.07
9523;BME280;63165;43.016;25.784;2023-05-01T03:26:13;100100.38;;;9.77;84.64
9523;BME280;63165;43.016;25.784;2023-05-01T03:28:41;100110.00;;;9.73;84.52
9523;BME280;63165;43.016;25.784;2023-05-01T03:31:12;100125.75;;;9.65;85.06
9523;BME280;63165;43.016;25.784;2023-05-01T03:33:40;100102.34;;;9.58;85.23
9523;BME280;63165;43.016;25.784;2023-05-01T03:36:07;100130.16;;;9.60;85.23
9523;BME280;63165;43.016;25.784;2023-05-01T03:38:36;100108.31;;;9.69;85.05
9523;BME280;63165;43.016;25.784;2023-05-01T03:41:03;100129.13;;;9.75;85.22
9523;BME280;63165;43.016;25.784;2023-05-01T03:43:31;100079.94;;;9.37;84.82
9523;BME280;63165;43.016;25.784;2023-05-01T03:45:58;100136.00;;;9.84;84.31
9523;BME280;63165;43.016;25.784;2023-05-01T03:48:27;100050.41;;;9.31;83.97
9523;BME280;63165;43.016;25.784;2023-05-01T03:50:54;100135.91;;;9.91;83.89
9523;BME280;63165;43.016;25.784;2023-05-01T03:53:22;100140.28;;;9.88;84.35
9523;BME280;63165;43.016;25.784;2023-05-01T03:55:50;100144.63;;;9.89;84.47
9523;BME280;63165;43.016;25.784;2023-05-01T03:58:17;100139.47;;;9.81;84.97
9523;BME280;63165;43.016;25.784;2023-05-01T04:00:46;100147.38;;;9.78;85.25
9523;BME280;63165;43.016;25.784;2023-05-01T04:03:13;100162.03;;;9.91;85.61
9523;BME280;63165;43.016;25.784;2023-05-01T04:05:42;100162.06;;;9.88;86.01
9523;BME280;63165;43.016;25.784;2023-05-01T04:08:09;100170.81;;;9.84;86.12
9523;BME280;63165;43.016;25.784;2023-05-01T04:10:37;100169.06;;;9.83;86.03
9523;BME280;63165;43.016;25.784;2023-05-01T04:13:04;100164.75;;;9.84;86.23
9523;BME280;63165;43.016;25.784;2023-05-01T04:15:31;100182.97;;;9.85;87.16
9523;BME280;63165;43.016;25.784;2023-05-01T04:17:59;100175.13;;;9.87;87.46
9523;BME280;63165;43.016;25.784;2023-05-01T04:20:26;100172.53;;;9.85;87.56
9523;BME280;63165;43.016;25.784;2023-05-01T04:22:54;100174.25;;;9.89;87.50
9523;BME280;63165;43.016;25.784;2023-05-01T04:25:22;100164.66;;;9.88;87.31
9523;BME280;63165;43.016;25.784;2023-05-01T04:27:49;100195.00;;;10.00;86.88
9523;BME280;63165;43.016;25.784;2023-05-01T04:30:17;100162.13;;;9.84;86.41
9523;BME280;63165;43.016;25.784;2023-05-01T04:32:44;100199.38;;;10.00;86.27
9523;BME280;63165;43.016;25.784;2023-05-01T04:35:12;100195.84;;;10.02;85.88
9523;BME280;63165;43.016;25.784;2023-05-01T04:37:39;100155.25;;;9.77;86.55
9523;BME280;63165;43.016;25.784;2023-05-01T04:40:10;100203.75;;;9.98;86.29
9523;BME280;63165;43.016;25.784;2023-05-01T04:42:38;100205.56;;;9.91;86.31
9523;BME280;63165;43.016;25.784;2023-05-01T04:45:06;100194.97;;;10.06;86.44
9523;BME280;63165;43.016;25.784;2023-05-01T04:47:33;100233.94;;;10.25;86.46
9523;BME280;63165;43.016;25.784;2023-05-01T04:50:00;100211.44;;;10.11;86.53
9523;BME280;63165;43.016;25.784;2023-05-01T04:52:27;100233.06;;;10.26;86.52
9523;BME280;63165;43.016;25.784;2023-05-01T04:54:55;100232.94;;;10.37;86.51
9523;BME280;63165;43.016;25.784;2023-05-01T04:57:23;100229.41;;;10.42;86.79
9523;BME280;63165;43.016;25.784;2023-05-01T04:59:51;100232.88;;;10.41;87.07
9523;BME280;63165;43.016;25.784;2023-05-01T05:02:18;100135.84;;;9.93;87.21
9523;BME280;63165;43.016;25.784;2023-05-01T05:04:45;100220.59;;;10.48;87.35
9523;BME280;63165;43.016;25.784;2023-05-01T05:07:13;100182.44;;;10.30;87.85
9523;BME280;63165;43.016;25.784;2023-05-01T05:09:40;100193.66;;;10.41;87.97
9523;BME280;63165;43.016;25.784;2023-05-01T05:12:07;100258.56;;;10.78;87.97
9523;BME280;63165;43.016;25.784;2023-05-01T05:14:36;100232.25;;;10.86;88.41
9523;BME280;63165;43.016;25.784;2023-05-01T05:17:03;100221.88;;;10.81;88.51
9523;BME280;63165;43.016;25.784;2023-05-01T05:19:30;100198.63;;;10.60;88.88
9523;BME280;63165;43.016;25.784;2023-05-01T05:22:05;100236.66;;;10.84;89.34
9523;BME280;63165;43.016;25.784;2023-05-01T05:24:33;100240.84;;;10.96;89.71
9523;BME280;63165;43.016;25.784;2023-05-01T05:27:00;100246.84;;;11.04;90.56
9523;BME280;63165;43.016;25.784;2023-05-01T05:29:28;100234.47;;;11.12;90.75
9523;BME280;63165;43.016;25.784;2023-05-01T05:31:57;100264.69;;;11.33;90.72
9523;BME280;63165;43.016;25.784;2023-05-01T05:34:25;100237.56;;;11.37;91.42
9523;BME280;63165;43.016;25.784;2023-05-01T05:36:52;100214.19;;;11.26;91.48
9523;BME280;63165;43.016;25.784;2023-05-01T05:39:20;100251.91;;;11.66;91.91
9523;BME280;63165;43.016;25.784;2023-05-01T05:41:48;100255.22;;;11.76;92.17
9523;BME280;63165;43.016;25.784;2023-05-01T05:44:15;100237.66;;;11.82;91.93
9523;BME280;63165;43.016;25.784;2023-05-01T05:46:42;100252.34;;;11.91;92.48
9523;BME280;63165;43.016;25.784;2023-05-01T05:49:11;100252.97;;;12.06;92.61
9523;BME280;63165;43.016;25.784;2023-05-01T05:51:38;100262.22;;;12.25;93.29
9523;BME280;63165;43.016;25.784;2023-05-01T05:54:06;100253.13;;;12.40;93.61
9523;BME280;63165;43.016;25.784;2023-05-01T05:56:33;100267.56;;;12.62;93.40
9523;BME280;63165;43.016;25.784;2023-05-01T05:59:00;100257.47;;;12.83;93.83
9523;BME280;63165;43.016;25.784;2023-05-01T06:01:29;100267.28;;;13.12;94.60
9523;BME280;63165;43.016;25.784;2023-05-01T06:03:57;100272.53;;;13.50;94.73
9523;BME280;63165;43.016;25.784;2023-05-01T06:06:25;100262.97;;;13.82;94.61
9523;BME280;63165;43.016;25.784;2023-05-01T06:08:53;100269.03;;;14.16;93.38
9523;BME280;63165;43.016;25.784;2023-05-01T06:11:20;100262.88;;;14.47;91.84
9523;BME280;63165;43.016;25.784;2023-05-01T06:13:47;100272.53;;;14.78;89.74
9523;BME280;63165;43.016;25.784;2023-05-01T06:16:15;100267.84;;;15.16;87.78
9523;BME280;63165;43.016;25.784;2023-05-01T06:18:42;100285.41;;;15.44;86.54
9523;BME280;63165;43.016;25.784;2023-05-01T06:21:10;100292.41;;;15.71;84.81
9523;BME280;63165;43.016;25.784;2023-05-01T06:23:39;100283.72;;;15.95;82.88
9523;BME280;63165;43.016;25.784;2023-05-01T06:26:06;100278.53;;;16.17;81.48
9523;BME280;63165;43.016;25.784;2023-05-01T06:28:34;100281.06;;;16.43;80.35
9523;BME280;63165;43.016;25.784;2023-05-01T06:31:01;100276.69;;;16.66;78.44
9523;BME280;63165;43.016;25.784;2023-05-01T06:33:29;100291.94;;;16.81;77.08
9523;BME280;63165;43.016;25.784;2023-05-01T06:35:56;100295.09;;;16.93;75.73
9523;BME280;63165;43.016;25.784;2023-05-01T06:38:24;100293.00;;;17.01;74.82
9523;BME280;63165;43.016;25.784;2023-05-01T06:40:53;100279.59;;;17.05;74.36
9523;BME280;63165;43.016;25.784;2023-05-01T06:43:21;100278.75;;;17.27;72.80
9523;BME280;63165;43.016;25.784;2023-05-01T06:45:52;100284.50;;;17.37;72.05
9523;BME280;63165;43.016;25.784;2023-05-01T06:48:19;100292.28;;;17.41;70.97
9523;BME280;63165;43.016;25.784;2023-05-01T06:50:47;100293.88;;;17.45;70.31
9523;BME280;63165;43.016;25.784;2023-05-01T06:53:14;100288.25;;;17.53;69.76
9523;BME280;63165;43.016;25.784;2023-05-01T06:55:41;100288.66;;;17.64;70.05
9523;BME280;63165;43.016;25.784;2023-05-01T06:58:10;100295.22;;;17.76;69.29
9523;BME280;63165;43.016;25.784;2023-05-01T07:00:37;100298.09;;;17.92;67.86
9523;BME280;63165;43.016;25.784;2023-05-01T07:03:05;100292.00;;;18.11;66.48
9523;BME280;63165;43.016;25.784;2023-05-01T07:05:32;100300.13;;;18.27;65.63
9523;BME280;63165;43.016;25.784;2023-05-01T07:07:59;100294.06;;;18.43;64.70
9523;BME280;63165;43.016;25.784;2023-05-01T07:10:27;100282.63;;;18.62;64.19
9523;BME280;63165;43.016;25.784;2023-05-01T07:12:55;100299.94;;;18.90;63.79
9523;BME280;63165;43.016;25.784;2023-05-01T07:15:24;100305.06;;;19.12;62.83
9523;BME280;63165;43.016;25.784;2023-05-01T07:17:51;100307.84;;;19.28;62.92
9523;BME280;63165;43.016;25.784;2023-05-01T07:20:18;100250.81;;;19.19;61.92
9523;BME280;63165;43.016;25.784;2023-05-01T07:22:45;100277.28;;;19.55;59.85
9523;BME280;63165;43.016;25.784;2023-05-01T07:25:12;100303.56;;;19.79;57.99
9523;BME280;63165;43.016;25.784;2023-05-01T07:27:40;100314.94;;;19.98;58.25
9523;BME280;63165;43.016;25.784;2023-05-01T07:30:09;100304.22;;;20.17;57.81
9523;BME280;63165;43.016;25.784;2023-05-01T07:32:38;100297.78;;;20.39;57.06
9523;BME280;63165;43.016;25.784;2023-05-01T07:35:06;100317.09;;;20.59;55.28
9523;BME280;63165;43.016;25.784;2023-05-01T07:37:34;100297.16;;;20.67;54.48
9523;BME280;63165;43.016;25.784;2023-05-01T07:40:01;100310.16;;;20.89;53.85
9523;BME280;63165;43.016;25.784;2023-05-01T07:42:28;100318.97;;;21.06;53.80
9523;BME280;63165;43.016;25.784;2023-05-01T07:44:55;100311.84;;;21.22;52.71
9523;BME280;63165;43.016;25.784;2023-05-01T07:47:22;100326.16;;;21.36;53.09
9523;BME280;63165;43.016;25.784;2023-05-01T07:49:53;100317.66;;;21.61;52.98
9523;BME280;63165;43.016;25.784;2023-05-01T07:52:21;100314.59;;;21.83;52.39
9523;BME280;63165;43.016;25.784;2023-05-01T07:54:50;100322.59;;;21.97;52.87
9523;BME280;63165;43.016;25.784;2023-05-01T07:57:17;100330.13;;;22.05;51.54
9523;BME280;63165;43.016;25.784;2023-05-01T07:59:45;100321.59;;;22.00;50.06
9523;BME280;63165;43.016;25.784;2023-05-01T08:02:15;100316.09;;;22.17;49.24
9523;BME280;63165;43.016;25.784;2023-05-01T08:04:42;100319.34;;;22.37;49.08
9523;BME280;63165;43.016;25.784;2023-05-01T08:07:12;100311.94;;;22.42;48.02
9523;BME280;63165;43.016;25.784;2023-05-01T08:09:39;100310.13;;;22.57;47.39
9523;BME280;63165;43.016;25.784;2023-05-01T08:12:06;100318.63;;;22.63;47.50
9523;BME280;63165;43.016;25.784;2023-05-01T08:14:34;100311.72;;;22.74;47.10
9523;BME280;63165;43.016;25.784;2023-05-01T08:17:01;100304.13;;;22.82;47.34
9523;BME280;63165;43.016;25.784;2023-05-01T08:19:29;100308.47;;;22.97;47.03
9523;BME280;63165;43.016;25.784;2023-05-01T08:21:56;100300.00;;;23.05;47.24
9523;BME280;63165;43.016;25.784;2023-05-01T08:24:25;100319.56;;;23.33;46.92
9523;BME280;63165;43.016;25.784;2023-05-01T08:26:52;100316.81;;;23.47;46.34
9523;BME280;63165;43.016;25.784;2023-05-01T08:29:19;100309.91;;;23.57;45.40
9523;BME280;63165;43.016;25.784;2023-05-01T08:31:46;100307.91;;;23.74;45.33
9523;BME280;63165;43.016;25.784;2023-05-01T08:34:13;100298.72;;;23.78;45.45
9523;BME280;63165;43.016;25.784;2023-05-01T08:36:42;100306.56;;;23.94;45.18
9523;BME280;63165;43.016;25.784;2023-05-01T08:39:09;100310.00;;;23.96;44.80
9523;BME280;63165;43.016;25.784;2023-05-01T08:41:38;100306.28;;;24.11;45.15
9523;BME280;63165;43.016;25.784;2023-05-01T08:44:07;100293.97;;;24.09;44.66
9523;BME280;63165;43.016;25.784;2023-05-01T08:46:44;100301.91;;;24.23;44.34
9523;BME280;63165;43.016;25.784;2023-05-01T08:49:14;100296.00;;;24.44;44.25
9523;BME280;63165;43.016;25.784;2023-05-01T08:51:44;100286.59;;;24.38;43.24
9523;BME280;63165;43.016;25.784;2023-05-01T08:54:13;100291.84;;;24.39;41.97
9523;BME280;63165;43.016;25.784;2023-05-01T08:56:43;100294.81;;;24.48;41.66
9523;BME280;63165;43.016;25.784;2023-05-01T08:59:13;100296.13;;;24.42;41.31
9523;BME280;63165;43.016;25.784;2023-05-01T09:01:41;100298.47;;;24.47;40.99
9523;BME280;63165;43.016;25.784;2023-05-01T09:04:09;100301.78;;;24.50;40.39
9523;BME280;63165;43.016;25.784;2023-05-01T09:06:37;100297.22;;;24.52;40.07
9523;BME280;63165;43.016;25.784;2023-05-01T09:09:05;100305.34;;;24.64;39.86
9523;BME280;63165;43.016;25.784;2023-05-01T09:11:32;100292.44;;;24.69;39.46
9523;BME280;63165;43.016;25.784;2023-05-01T09:14:02;100300.81;;;24.64;38.33
9523;BME280;63165;43.016;25.784;2023-05-01T09:16:30;100278.34;;;24.67;38.70
9523;BME280;63165;43.016;25.784;2023-05-01T09:18:57;100276.28;;;24.70;38.45
9523;BME280;63165;43.016;25.784;2023-05-01T09:21:26;100285.06;;;24.72;38.57
9523;BME280;63165;43.016;25.784;2023-05-01T09:23:56;100285.59;;;24.77;38.03
9523;BME280;63165;43.016;25.784;2023-05-01T09:26:23;100291.69;;;24.79;38.06
9523;BME280;63165;43.016;25.784;2023-05-01T09:28:51;100275.75;;;24.78;38.19
9523;BME280;63165;43.016;25.784;2023-05-01T09:31:25;100271.72;;;24.96;37.96
9523;BME280;63165;43.016;25.784;2023-05-01T09:33:55;100264.94;;;25.04;37.81
9523;BME280;63165;43.016;25.784;2023-05-01T09:36:23;100268.09;;;25.22;37.44
9523;BME280;63165;43.016;25.784;2023-05-01T09:38:51;100290.41;;;25.46;37.02
9523;BME280;63165;43.016;25.784;2023-05-01T09:41:19;100277.81;;;25.35;36.82
9523;BME280;63165;43.016;25.784;2023-05-01T09:43:50;100287.78;;;25.33;36.57
9523;BME280;63165;43.016;25.784;2023-05-01T09:46:18;100286.63;;;25.25;36.50
9523;BME280;63165;43.016;25.784;2023-05-01T09:48:54;100279.88;;;25.19;36.41
9523;BME280;63165;43.016;25.784;2023-05-01T09:51:25;100282.78;;;25.29;36.39
9523;BME280;63165;43.016;25.784;2023-05-01T09:53:54;100280.94;;;25.29;36.11
9523;BME280;63165;43.016;25.784;2023-05-01T09:56:21;100281.84;;;25.41;36.54
9523;BME280;63165;43.016;25.784;2023-05-01T09:59:13;100278.94;;;25.44;36.88
9523;BME280;63165;43.016;25.784;2023-05-01T10:01:43;100268.13;;;25.46;36.31
9523;BME280;63165;43.016;25.784;2023-05-01T10:04:12;100279.75;;;25.69;36.10
9523;BME280;63165;43.016;25.784;2023-05-01T10:06:40;100271.53;;;25.83;36.08
9523;BME280;63165;43.016;25.784;2023-05-01T10:09:07;100274.88;;;25.98;35.65
9523;BME280;63165;43.016;25.784;2023-05-01T10:11:47;100252.16;;;25.91;35.93
9523;BME280;63165;43.016;25.784;2023-05-01T10:14:16;100267.78;;;25.97;35.87
9523;BME280;63165;43.016;25.784;2023-05-01T10:16:45;100268.34;;;25.89;35.37
9523;BME280;63165;43.016;25.784;2023-05-01T10:19:17;100266.50;;;25.90;35.39
9523;BME280;63165;43.016;25.784;2023-05-01T10:21:44;100278.34;;;25.87;34.84
9523;BME280;63165;43.016;25.784;2023-05-01T10:24:12;100276.88;;;25.83;34.28
9523;BME280;63165;43.016;25.784;2023-05-01T10:26:41;100263.34;;;25.85;33.84
9523;BME280;63165;43.016;25.784;2023-05-01T10:29:08;100265.94;;;25.98;33.74
9523;BME280;63165;43.016;25.784;2023-05-01T10:31:36;100253.16;;;26.01;33.46
9523;BME280;63165;43.016;25.784;2023-05-01T10:34:05;100268.81;;;26.19;32.69
9523;BME280;63165;43.016;25.784;2023-05-01T10:36:37;100263.44;;;26.19;31.99
9523;BME280;63165;43.016;25.784;2023-05-01T10:39:05;100266.97;;;26.19;32.48
9523;BME280;63165;43.016;25.784;2023-05-01T10:42:03;100265.50;;;26.15;32.55
9523;BME280;63165;43.016;25.784;2023-05-01T10:44:31;100254.63;;;26.17;32.50
9523;BME280;63165;43.016;25.784;2023-05-01T10:46:59;100250.38;;;26.25;32.49
9523;BME280;63165;43.016;25.784;2023-05-01T10:52:26;100261.72;;;26.29;31.78
9523;BME280;63165;43.016;25.784;2023-05-01T10:55:32;100243.94;;;26.28;31.63
9523;BME280;63165;43.016;25.784;2023-05-01T10:58:00;100241.09;;;26.18;31.85
9523;BME280;63165;43.016;25.784;2023-05-01T11:00:27;100260.25;;;26.25;32.28
9523;BME280;63165;43.016;25.784;2023-05-01T11:06:04;100246.84;;;26.36;32.17
9523;BME280;63165;43.016;25.784;2023-05-01T11:08:34;100240.25;;;26.51;31.63
9523;BME280;63165;43.016;25.784;2023-05-01T11:14:13;100245.25;;;26.79;30.95
9523;BME280;63165;43.016;25.784;2023-05-01T11:16:41;100254.72;;;26.94;30.66
9523;BME280;63165;43.016;25.784;2023-05-01T11:19:43;100245.69;;;26.95;28.68
9523;BME280;63165;43.016;25.784;2023-05-01T11:22:12;100238.72;;;26.92;29.29
9523;BME280;63165;43.016;25.784;2023-05-01T11:24:41;100235.41;;;27.00;28.63
9523;BME280;63165;43.016;25.784;2023-05-01T11:27:13;100244.09;;;27.25;29.01
9523;BME280;63165;43.016;25.784;2023-05-01T11:29:43;100252.50;;;27.43;28.96
9523;BME280;63165;43.016;25.784;2023-05-01T11:32:21;100241.81;;;27.53;27.82
9523;BME280;63165;43.016;25.784;2023-05-01T11:34:49;100237.22;;;27.43;28.45
9523;BME280;63165;43.016;25.784;2023-05-01T11:37:17;100237.44;;;27.52;28.69
9523;BME280;63165;43.016;25.784;2023-05-01T11:39:50;100231.53;;;27.79;28.90
9523;BME280;63165;43.016;25.784;2023-05-01T11:42:20;100247.06;;;27.75;28.80
9523;BME280;63165;43.016;25.784;2023-05-01T11:45:07;100231.78;;;27.55;28.31
9523;BME280;63165;43.016;25.784;2023-05-01T11:47:36;100229.69;;;27.37;28.90
9523;BME280;63165;43.016;25.784;2023-05-01T11:50:04;100239.72;;;27.35;28.76
9523;BME280;63165;43.016;25.784;2023-05-01T11:52:41;100242.53;;;27.22;28.40
9523;BME280;63165;43.016;25.784;2023-05-01T11:55:10;100203.78;;;26.71;28.76
9523;BME280;63165;43.016;25.784;2023-05-01T11:57:47;100221.34;;;26.76;28.90
9523;BME280;63165;43.016;25.784;2023-05-01T12:00:15;100229.50;;;26.51;29.31
9523;BME280;63165;43.016;25.784;2023-05-01T12:02:55;100247.34;;;26.19;29.05
9523;BME280;63165;43.016;25.784;2023-05-01T12:05:23;100224.03;;;25.97;28.82
9523;BME280;63165;43.016;25.784;2023-05-01T12:07:51;100230.63;;;26.04;28.73
9523;BME280;63165;43.016;25.784;2023-05-01T12:10:19;100231.47;;;26.04;28.76
9523;BME280;63165;43.016;25.784;2023-05-01T12:12:47;100226.13;;;26.04;28.07
9523;BME280;63165;43.016;25.784;2023-05-01T12:15:14;100231.50;;;26.15;28.05
9523;BME280;63165;43.016;25.784;2023-05-01T12:17:42;100222.09;;;26.32;28.37
9523;BME280;63165;43.016;25.784;2023-05-01T12:20:11;100204.75;;;26.48;28.12
9523;BME280;63165;43.016;25.784;2023-05-01T12:22:48;100225.16;;;26.62;27.76
9523;BME280;63165;43.016;25.784;2023-05-01T12:25:16;100227.97;;;26.60;27.08
9523;BME280;63165;43.016;25.784;2023-05-01T12:27:46;100222.44;;;26.73;27.07
9523;BME280;63165;43.016;25.784;2023-05-01T12:30:23;100193.53;;;26.77;27.20
9523;BME280;63165;43.016;25.784;2023-05-01T12:32:51;100211.72;;;27.05;27.46
9523;BME280;63165;43.016;25.784;2023-05-01T12:35:19;100193.66;;;27.07;26.91
9523;BME280;63165;43.016;25.784;2023-05-01T12:37:46;100190.53;;;27.23;26.55
9523;BME280;63165;43.016;25.784;2023-05-01T12:40:14;100205.97;;;27.42;26.23
9523;BME280;63165;43.016;25.784;2023-05-01T12:42:41;100213.31;;;27.40;26.43
9523;BME280;63165;43.016;25.784;2023-05-01T12:45:10;100198.81;;;27.53;26.40
9523;BME280;63165;43.016;25.784;2023-05-01T12:47:40;100193.78;;;27.59;26.61
9523;BME280;63165;43.016;25.784;2023-05-01T12:50:08;100193.84;;;27.69;26.49
9523;BME280;63165;43.016;25.784;2023-05-01T12:52:36;100200.53;;;27.75;25.81
9523;BME280;63165;43.016;25.784;2023-05-01T12:55:04;100190.50;;;27.56;25.53
9523;BME280;63165;43.016;25.784;2023-05-01T12:57:33;100200.19;;;27.68;25.41
9523;BME280;63165;43.016;25.784;2023-05-01T13:00:03;100208.00;;;27.71;25.39
9523;BME280;63165;43.016;25.784;2023-05-01T13:02:32;100204.25;;;27.62;24.63
9523;BME280;63165;43.016;25.784;2023-05-01T13:05:08;100208.41;;;27.66;24.70
9523;BME280;63165;43.016;25.784;2023-05-01T13:07:36;100185.66;;;27.71;25.11
9523;BME280;63165;43.016;25.784;2023-05-01T13:10:05;100192.38;;;27.86;25.18
9523;BME280;63165;43.016;25.784;2023-05-01T13:12:41;100187.34;;;27.72;24.90
9523;BME280;63165;43.016;25.784;2023-05-01T13:15:18;100197.13;;;27.52;25.48
9523;BME280;63165;43.016;25.784;2023-05-01T13:17:47;100188.53;;;27.37;26.22